createdAt,value
2023-02-09T00:01:44.745Z,102669.16
2023-02-09T00:06:46.475Z,102665.56
2023-02-09T00:11:48.619Z,102670.94
2023-02-09T00:16:52.035Z,102665.34
2023-02-09T00:21:54.034Z,102647.53
2023-02-09T00:26:55.592Z,102654.75
2023-02-09T00:31:57.174Z,102648.81
2023-02-09T00:36:58.683Z,102659.75
2023-02-09T00:42:00.280Z,102644.94
2023-02-09T00:47:03.698Z,102652.94
2023-02-09T00:52:05.421Z,102649.41
2023-02-09T00:57:06.947Z,102646.06
2023-02-09T01:02:08.746Z,102652.56
2023-02-09T01:07:10.324Z,102656.78
2023-02-09T01:12:11.844Z,102655.44
2023-02-09T01:17:13.376Z,102659.94
2023-02-09T01:22:16.438Z,102656.34
2023-02-09T01:27:20.760Z,102651.41
2023-02-09T01:32:22.279Z,102649.81
2023-02-09T01:37:23.842Z,102630.59
2023-02-09T01:42:25.452Z,102627.25
2023-02-09T01:47:27.055Z,102636.94
2023-02-09T01:52:29.362Z,102631.41
2023-02-09T01:57:37.244Z,102628.25
2023-02-09T02:02:39.695Z,102625.19
2023-02-09T02:07:46.785Z,102641.13
2023-02-09T02:12:48.689Z,102633.53
2023-02-09T02:18:28.097Z,102633.41
2023-02-09T02:23:45.308Z,102635.31
2023-02-09T02:29:14.821Z,102638.00
2023-02-09T02:34:37.469Z,102631.63
2023-02-09T02:39:49.457Z,102627.91
2023-02-09T02:45:08.832Z,102629.88
2023-02-09T02:50:23.849Z,102633.34
2023-02-09T02:55:30.275Z,102633.13
2023-02-09T03:00:36.589Z,102634.13
2023-02-09T03:05:38.722Z,102629.41
2023-02-09T03:10:42.118Z,102635.97
2023-02-09T03:22:28.931Z,102619.97
2023-02-09T03:27:41.532Z,102621.38
2023-02-09T03:32:45.487Z,102621.50
2023-02-09T03:37:47.190Z,102618.94
2023-02-09T03:42:49.471Z,102631.09
2023-02-09T03:47:51.116Z,102626.19
2023-02-09T03:52:52.657Z,102619.88
2023-02-09T03:57:54.231Z,102619.88
2023-02-09T04:02:55.744Z,102613.94
2023-02-09T04:07:57.234Z,102602.47
2023-02-09T04:12:58.731Z,102603.94
2023-02-09T04:18:00.359Z,102602.47
2023-02-09T04:23:01.899Z,102601.13
2023-02-09T04:28:04.370Z,102602.44
2023-02-09T04:33:06.096Z,102595.56
2023-02-09T04:38:07.588Z,102595.31
2023-02-09T04:43:09.164Z,102575.03
2023-02-09T04:48:13.625Z,102588.50
2023-02-09T04:53:15.528Z,102584.28
2023-02-09T04:58:19.850Z,102586.25
2023-02-09T05:03:23.669Z,102564.34
2023-02-09T05:08:26.337Z,102561.59
2023-02-09T05:13:28.476Z,102566.66
2023-02-09T05:18:32.672Z,102552.75
2023-02-09T05:23:34.439Z,102560.56
2023-02-09T05:28:36.377Z,102565.44
2023-02-09T05:33:37.874Z,102564.16
2023-02-09T05:38:39.757Z,102556.47
2023-02-09T05:43:41.281Z,102547.09
2023-02-09T05:48:42.902Z,102554.69
2023-02-09T05:53:44.448Z,102554.69
2023-02-09T05:58:45.923Z,102568.09
2023-02-09T06:03:47.505Z,102562.41
2023-02-09T06:08:49.092Z,102567.72
2023-02-09T06:13:50.604Z,102561.81
2023-02-09T06:18:52.223Z,102575.22
2023-02-09T06:23:53.836Z,102583.66
2023-02-09T06:28:55.657Z,102592.19
2023-02-09T06:33:57.278Z,102578.19
2023-02-09T06:38:58.898Z,102561.31
2023-02-09T06:44:00.534Z,102562.44
2023-02-09T06:49:02.474Z,102566.59
2023-02-09T06:54:04.431Z,102569.94
2023-02-09T06:59:06.016Z,102567.19
2023-02-09T07:04:07.546Z,102571.53
2023-02-09T07:09:09.253Z,102567.53
2023-02-09T07:14:10.908Z,102571.44
2023-02-09T07:19:12.991Z,102566.59
2023-02-09T07:24:14.577Z,102558.06
2023-02-09T07:29:16.734Z,102585.88
2023-02-09T07:34:18.253Z,102593.16
2023-02-09T07:39:19.923Z,102603.19
2023-02-09T07:44:21.556Z,102607.97
2023-02-09T07:49:23.147Z,102605.19
2023-02-09T07:54:24.753Z,102611.00
2023-02-09T07:59:26.330Z,102617.31
2023-02-09T08:04:27.961Z,102616.22
2023-02-09T08:09:29.607Z,102618.56
2023-02-09T08:14:37.693Z,102614.31
2023-02-09T08:19:39.619Z,102610.63
2023-02-09T08:24:41.406Z,102601.94
2023-02-09T08:29:43.191Z,102601.06
2023-02-09T08:34:44.755Z,102605.81
2023-02-09T08:39:46.276Z,102620.63
2023-02-09T08:44:48.051Z,102634.31
2023-02-09T08:49:50.205Z,102646.72
2023-02-09T08:54:51.783Z,102642.78
2023-02-09T08:59:53.404Z,102632.28
2023-02-09T09:04:54.912Z,102644.28
2023-02-09T09:09:56.483Z,102650.47
2023-02-09T09:14:57.995Z,102658.81
2023-02-09T09:19:59.728Z,102668.94
2023-02-09T09:25:01.366Z,102673.06
2023-02-09T09:30:04.589Z,102674.91
2023-02-09T09:35:06.444Z,102674.66
2023-02-09T09:40:17.301Z,102680.91
2023-02-09T09:45:24.270Z,102674.81
2023-02-09T09:50:31.638Z,102675.75
2023-02-09T09:55:34.457Z,102680.69
2023-02-09T10:00:42.291Z,102689.75
2023-02-09T10:05:45.534Z,102695.50
2023-02-09T10:10:51.435Z,102701.63
2023-02-09T10:15:55.483Z,102702.66
2023-02-09T10:21:04.686Z,102707.16
2023-02-09T10:26:09.216Z,102720.28
2023-02-09T10:31:32.183Z,102703.63
2023-02-09T10:36:37.107Z,102713.00
2023-02-09T10:41:41.588Z,102697.69
2023-02-09T10:46:43.412Z,102700.28
2023-02-09T10:51:44.960Z,102697.75
2023-02-09T10:56:48.877Z,102686.31
2023-02-09T11:02:03.157Z,102691.66
2023-02-09T11:07:14.795Z,102692.41
2023-02-09T11:12:16.444Z,102690.50
2023-02-09T11:17:46.174Z,102681.72
2023-02-09T11:23:15.478Z,102653.81
2023-02-09T11:28:54.284Z,102632.03
2023-02-09T11:34:15.666Z,102635.88
2023-02-09T11:39:26.718Z,102646.06
2023-02-09T11:44:46.371Z,102629.25
2023-02-09T11:49:50.563Z,102634.84
2023-02-09T11:54:57.609Z,102629.47
2023-02-09T12:00:05.753Z,102630.44
2023-02-09T12:05:13.392Z,102642.66
2023-02-09T12:10:42.871Z,102620.88
2023-02-09T12:15:49.563Z,102617.63
2023-02-09T12:20:54.052Z,102600.66
2023-02-09T12:26:00.920Z,102601.50
2023-02-09T12:31:04.897Z,102601.97
2023-02-09T12:36:09.734Z,102605.78
2023-02-09T12:41:11.419Z,102599.84
2023-02-09T12:46:45.224Z,102582.75
2023-02-09T12:51:49.957Z,102592.25
2023-02-09T12:56:51.600Z,102601.34
2023-02-09T13:02:08.286Z,102599.09
2023-02-09T13:07:29.913Z,102599.44
2023-02-09T13:12:42.325Z,102598.38
2023-02-09T13:18:06.749Z,102593.31
2023-02-09T13:23:14.055Z,102595.13
2023-02-09T13:28:18.445Z,102595.31
2023-02-09T13:33:49.057Z,102585.03
2023-02-09T13:38:50.825Z,102571.63
2023-02-09T13:43:52.803Z,102582.03
2023-02-09T13:48:54.929Z,102596.34
2023-02-09T13:53:59.513Z,102583.03
2023-02-09T13:59:01.385Z,102593.97
2023-02-09T14:04:35.430Z,102600.09
2023-02-09T14:10:01.979Z,102579.31
2023-02-09T14:15:03.923Z,102572.81
2023-02-09T14:20:19.842Z,102576.41
2023-02-09T14:25:31.531Z,102581.69
2023-02-09T14:30:36.244Z,102577.22
2023-02-09T14:35:45.060Z,102579.13
2023-02-09T14:40:46.878Z,102574.44
2023-02-09T14:45:58.676Z,102582.72
2023-02-09T14:51:10.321Z,102586.88
2023-02-09T14:56:30.640Z,102590.41
2023-02-09T15:01:32.359Z,102578.22
2023-02-09T15:06:35.467Z,102583.09
2023-02-09T15:11:42.195Z,102592.63
2023-02-09T15:16:44.201Z,102582.91
2023-02-09T15:21:52.591Z,102584.59
2023-02-09T15:27:01.307Z,102595.47
2023-02-09T15:32:03.068Z,102583.69
2023-02-09T15:37:04.737Z,102589.13
2023-02-09T15:42:14.728Z,102598.09
2023-02-09T15:47:16.234Z,102601.56
2023-02-09T15:52:18.617Z,102613.75
2023-02-09T15:57:20.308Z,102606.16
2023-02-09T16:02:21.894Z,102617.28
2023-02-09T16:07:26.119Z,102611.16
2023-02-09T16:12:27.730Z,102612.72
2023-02-09T16:17:29.360Z,102615.97
2023-02-09T16:22:30.915Z,102627.56
2023-02-09T16:27:32.574Z,102623.75
2023-02-09T16:32:34.175Z,102638.03
2023-02-09T16:37:36.061Z,102648.97
2023-02-09T16:42:37.634Z,102660.41
2023-02-09T16:47:40.932Z,102655.16
2023-02-09T16:52:43.446Z,102674.44
2023-02-09T16:57:44.983Z,102684.41
2023-02-09T17:02:57.755Z,102685.72
2023-02-09T17:08:13.664Z,102683.66
2023-02-09T17:13:15.767Z,102693.53
2023-02-09T17:18:24.115Z,102702.28
2023-02-09T17:23:28.385Z,102715.09
2023-02-09T17:28:30.117Z,102720.25
2023-02-09T17:33:34.251Z,102720.94
2023-02-09T17:38:37.242Z,102724.13
2023-02-09T17:43:38.798Z,102739.63
2023-02-09T17:48:40.425Z,102747.25
2023-02-09T17:53:41.956Z,102756.84
2023-02-09T17:58:43.582Z,102760.53
2023-02-09T18:03:45.125Z,102760.56
2023-02-09T18:08:46.648Z,102760.66
2023-02-09T18:13:48.179Z,102768.53
2023-02-09T18:18:49.792Z,102773.78
2023-02-09T18:23:51.417Z,102773.47
2023-02-09T18:28:53.061Z,102769.16
2023-02-09T18:33:54.896Z,102780.72
2023-02-09T18:38:56.463Z,102787.41
2023-02-09T18:43:58.166Z,102771.56
2023-02-09T18:49:01.858Z,102782.03
2023-02-09T18:54:04.799Z,102791.88
2023-02-09T18:59:06.334Z,102796.25
2023-02-09T19:04:07.917Z,102795.19
2023-02-09T19:09:09.457Z,102810.66
2023-02-09T19:14:11.035Z,102804.00
2023-02-09T19:19:12.796Z,102807.06
2023-02-09T19:24:14.431Z,102807.91
2023-02-09T19:29:16.691Z,102821.94
2023-02-09T19:34:18.746Z,102826.19
2023-02-09T19:39:20.261Z,102823.34
2023-02-09T19:44:21.774Z,102837.44
2023-02-09T19:49:23.576Z,102835.84
2023-02-09T19:54:25.089Z,102831.41
2023-02-09T19:59:26.574Z,102848.13
2023-02-09T20:04:28.160Z,102844.31
2023-02-09T20:09:29.853Z,102848.31
2023-02-09T20:14:33.481Z,102851.38
2023-02-09T20:19:36.078Z,102849.78
2023-02-09T20:24:37.714Z,102854.44
2023-02-09T20:29:39.246Z,102851.28
2023-02-09T20:34:40.826Z,102866.50
2023-02-09T20:39:42.384Z,102868.81
2023-02-09T20:44:44.278Z,102872.75
2023-02-09T20:49:45.819Z,102881.56
2023-02-09T20:54:47.405Z,102890.28
2023-02-09T20:59:48.909Z,102898.56
2023-02-09T21:04:50.829Z,102900.03
2023-02-09T21:09:52.929Z,102899.84
2023-02-09T21:14:54.550Z,102901.06
2023-02-09T21:19:56.552Z,102897.97
2023-02-09T21:24:58.056Z,102904.34
2023-02-09T21:30:00.012Z,102904.25
2023-02-09T21:35:03.598Z,102907.34
2023-02-09T21:40:06.650Z,102906.81
2023-02-09T21:45:09.302Z,102904.16
2023-02-09T21:50:12.961Z,102900.38
2023-02-09T21:55:14.738Z,102895.50
2023-02-09T22:00:16.651Z,102896.69
2023-02-09T22:05:18.505Z,102902.97
2023-02-09T22:10:20.142Z,102896.75
2023-02-09T22:15:21.670Z,102894.31
2023-02-09T22:20:23.319Z,102890.97
2023-02-09T22:25:24.954Z,102897.38
2023-02-09T22:30:26.526Z,102881.03
2023-02-09T22:35:28.741Z,102883.44
2023-02-09T22:40:30.329Z,102889.06
2023-02-09T22:45:32.363Z,102898.50
2023-02-09T22:50:34.971Z,102906.66
2023-02-09T22:55:36.521Z,102906.31
2023-02-09T23:00:38.041Z,102911.94
2023-02-09T23:05:39.562Z,102907.53
2023-02-09T23:10:41.094Z,102915.16
2023-02-09T23:15:42.659Z,102922.63
2023-02-09T23:20:44.175Z,102921.88
2023-02-09T23:25:45.862Z,102917.66
2023-02-09T23:30:48.045Z,102913.09
2023-02-09T23:35:49.950Z,102926.41
2023-02-09T23:40:51.602Z,102922.75
2023-02-09T23:45:53.555Z,102921.09
2023-02-09T23:51:04.048Z,102925.97
2023-02-09T23:56:05.845Z,102930.59
